createdAt,value
2018-06-02T00:00:58.291Z,19.00
2018-06-02T00:03:25.380Z,19.00
2018-06-02T00:05:51.963Z,19.00
2018-06-02T00:08:18.561Z,19.00
2018-06-02T00:10:45.166Z,19.00
2018-06-02T00:13:11.777Z,19.00
2018-06-02T00:15:38.369Z,19.00
2018-06-02T00:18:04.926Z,19.00
2018-06-02T00:20:31.526Z,19.00
2018-06-02T00:22:58.257Z,19.00
2018-06-02T00:25:24.988Z,18.90
2018-06-02T00:27:51.607Z,18.90
2018-06-02T00:30:18.174Z,18.90
2018-06-02T00:32:44.877Z,18.90
2018-06-02T00:35:11.481Z,18.90
2018-06-02T00:37:38.078Z,18.90
2018-06-02T00:40:04.665Z,18.70
2018-06-02T00:42:31.274Z,18.60
2018-06-02T00:44:57.941Z,18.60
2018-06-02T00:47:24.592Z,18.60
2018-06-02T00:49:51.189Z,18.50
2018-06-02T00:52:18.146Z,18.50
2018-06-02T00:54:57.362Z,18.50
2018-06-02T00:57:24.359Z,18.50
2018-06-02T00:59:50.993Z,18.40
2018-06-02T01:02:17.957Z,18.40
2018-06-02T01:04:44.665Z,18.40
2018-06-02T01:07:11.257Z,18.40
2018-06-02T01:09:38.228Z,18.20
2018-06-02T01:12:04.823Z,18.20
2018-06-02T01:14:31.433Z,18.20
2018-06-02T01:16:58.090Z,18.20
2018-06-02T01:19:24.738Z,18.20
2018-06-02T01:21:51.350Z,18.20
2018-06-02T01:24:18.278Z,18.20
2018-06-02T01:26:44.901Z,18.20
2018-06-02T01:29:11.493Z,18.20
2018-06-02T01:31:38.458Z,18.20
2018-06-02T01:34:05.421Z,18.20
2018-06-02T01:36:32.407Z,18.10
2018-06-02T01:38:59.057Z,18.10
2018-06-02T01:41:25.688Z,18.10
2018-06-02T01:43:52.291Z,17.90
2018-06-02T01:46:18.882Z,17.90
2018-06-02T01:48:45.474Z,17.90
2018-06-02T01:51:12.073Z,18.00
2018-06-02T01:53:38.997Z,18.00
2018-06-02T01:56:05.597Z,18.00
2018-06-02T01:58:32.189Z,17.80
2018-06-02T02:00:58.815Z,17.80
2018-06-02T02:03:25.505Z,17.80
2018-06-02T02:05:52.087Z,17.80
2018-06-02T02:08:18.685Z,17.90
2018-06-02T02:10:45.311Z,17.90
2018-06-02T02:13:11.901Z,17.90
2018-06-02T02:15:38.894Z,17.60
2018-06-02T02:18:05.469Z,17.60
2018-06-02T02:20:32.054Z,17.60
2018-06-02T02:22:58.781Z,17.70
2018-06-02T02:25:25.829Z,17.60
2018-06-02T02:27:52.482Z,17.60
2018-06-02T02:30:19.038Z,17.60
2018-06-02T02:32:45.670Z,17.60
2018-06-02T02:35:12.322Z,17.40
2018-06-02T02:37:38.884Z,17.30
2018-06-02T02:40:05.473Z,17.10
2018-06-02T02:42:32.389Z,17.10
2018-06-02T02:44:59.023Z,17.10
2018-06-02T02:47:25.683Z,17.20
2018-06-02T02:49:52.265Z,17.10
2018-06-02T02:52:19.254Z,17.10
2018-06-02T02:54:45.884Z,17.10
2018-06-02T02:57:12.526Z,17.20
2018-06-02T02:59:39.489Z,16.80
2018-06-02T03:02:06.498Z,16.70
2018-06-02T03:04:33.089Z,16.80
2018-06-02T03:07:00.056Z,16.80
2018-06-02T03:09:26.691Z,16.80
2018-06-02T03:11:53.309Z,16.80
2018-06-02T03:14:19.859Z,16.70
2018-06-02T03:16:46.435Z,16.70
2018-06-02T03:19:13.411Z,16.60
2018-06-02T03:21:39.989Z,16.60
2018-06-02T03:24:06.541Z,16.50
2018-06-02T03:26:33.146Z,16.40
2018-06-02T03:29:00.134Z,16.50
2018-06-02T03:31:26.810Z,16.50
2018-06-02T03:33:53.424Z,16.40
2018-06-02T03:36:20.082Z,16.40
2018-06-02T03:38:46.812Z,16.40
2018-06-02T03:41:13.481Z,16.50
2018-06-02T03:43:40.062Z,16.60
2018-06-02T03:46:06.658Z,16.70
2018-06-02T03:48:33.251Z,16.80
2018-06-02T03:50:59.857Z,16.80
2018-06-02T03:53:26.531Z,16.90
2018-06-02T03:55:53.109Z,16.90
2018-06-02T03:58:19.702Z,17.00
2018-06-02T04:00:46.329Z,17.00
2018-06-02T04:03:13.263Z,16.70
2018-06-02T04:05:39.856Z,16.70
2018-06-02T04:08:06.426Z,16.50
2018-06-02T04:10:33.033Z,16.50
2018-06-02T04:12:59.702Z,16.40
2018-06-02T04:15:26.337Z,16.50
2018-06-02T04:17:52.956Z,16.30
2018-06-02T04:20:19.528Z,16.40
2018-06-02T04:22:46.545Z,16.50
2018-06-02T04:25:13.169Z,16.50
2018-06-02T04:27:39.772Z,16.40
2018-06-02T04:30:06.364Z,16.40
2018-06-02T04:32:32.957Z,16.40
2018-06-02T04:34:59.605Z,16.30
2018-06-02T04:37:26.437Z,16.40
2018-06-02T04:39:53.381Z,16.40
2018-06-02T04:42:20.000Z,16.40
2018-06-02T04:44:46.587Z,16.60
2018-06-02T04:47:13.198Z,16.60
2018-06-02T04:49:39.810Z,16.80
2018-06-02T04:52:06.378Z,16.90
2018-06-02T04:54:33.349Z,17.10
2018-06-02T04:56:59.941Z,17.10
2018-06-02T04:59:26.632Z,17.30
2018-06-02T05:01:53.255Z,17.30
2018-06-02T05:04:19.871Z,17.40
2018-06-02T05:06:46.465Z,17.40
2018-06-02T05:09:13.023Z,17.40
2018-06-02T05:11:39.649Z,17.70
2018-06-02T05:14:06.242Z,18.10
2018-06-02T05:16:32.801Z,18.10
2018-06-02T05:18:59.421Z,18.50
2018-06-02T05:21:26.079Z,18.90
2018-06-02T05:23:52.685Z,18.90
2018-06-02T05:26:19.277Z,19.10
2018-06-02T05:28:45.916Z,19.00
2018-06-02T05:31:12.869Z,19.70
2018-06-02T05:33:39.814Z,19.40
2018-06-02T05:36:06.510Z,19.40
2018-06-02T05:38:33.114Z,19.60
2018-06-02T05:40:59.717Z,19.80
2018-06-02T05:43:26.483Z,19.60
2018-06-02T05:45:53.044Z,19.80
2018-06-02T05:48:20.037Z,20.00
2018-06-02T05:50:47.048Z,20.10
2018-06-02T05:53:13.618Z,20.10
2018-06-02T05:55:47.374Z,20.40
2018-06-02T05:58:13.948Z,20.20
2018-06-02T06:00:40.562Z,20.30
2018-06-02T06:03:07.168Z,20.50
2018-06-02T06:05:33.738Z,20.80
2018-06-02T06:08:00.738Z,21.10
2018-06-02T06:10:27.370Z,21.10
2018-06-02T06:12:53.985Z,21.20
2018-06-02T06:15:20.621Z,21.30
2018-06-02T06:17:47.198Z,21.50
2018-06-02T06:20:14.197Z,21.50
2018-06-02T06:22:40.791Z,21.50
2018-06-02T06:25:07.381Z,21.60
2018-06-02T06:27:33.972Z,21.70
2018-06-02T06:30:00.573Z,21.90
2018-06-02T06:32:27.265Z,22.10
2018-06-02T06:34:53.845Z,22.30
2018-06-02T06:37:20.466Z,22.40
2018-06-02T06:39:47.092Z,22.70
2018-06-02T06:42:13.664Z,23.10
2018-06-02T06:44:40.366Z,23.30
2018-06-02T06:47:07.309Z,23.30
2018-06-02T06:49:33.897Z,23.30
2018-06-02T06:52:00.539Z,23.30
2018-06-02T06:54:27.147Z,23.50
2018-06-02T06:56:53.765Z,23.50
2018-06-02T06:59:20.325Z,23.60
2018-06-02T07:01:46.937Z,23.50
2018-06-02T07:04:13.553Z,23.60
2018-06-02T07:06:40.130Z,23.60
2018-06-02T07:09:06.799Z,23.70
2018-06-02T07:11:33.352Z,23.60
2018-06-02T07:13:59.978Z,23.80
2018-06-02T07:16:26.700Z,23.70
2018-06-02T07:18:53.301Z,23.60
2018-06-02T07:21:19.897Z,23.30
2018-06-02T07:23:46.486Z,22.80
2018-06-02T07:26:13.097Z,22.70
2018-06-02T07:28:39.683Z,22.90
2018-06-02T07:31:06.294Z,23.10
2018-06-02T07:33:32.905Z,22.40
2018-06-02T07:35:59.559Z,22.40
2018-06-02T07:38:26.644Z,22.60
2018-06-02T07:40:53.272Z,22.60
2018-06-02T07:43:20.283Z,23.20
2018-06-02T07:45:46.885Z,23.20
2018-06-02T07:48:13.840Z,23.20
2018-06-02T07:50:40.444Z,23.30
2018-06-02T07:53:07.040Z,22.80
2018-06-02T07:55:33.977Z,22.30
2018-06-02T07:58:00.619Z,22.30
2018-06-02T08:00:27.241Z,22.40
2018-06-02T08:02:53.852Z,22.40
2018-06-02T08:05:20.458Z,22.70
2018-06-02T08:07:47.034Z,23.20
2018-06-02T08:10:14.018Z,22.30
2018-06-02T08:12:40.605Z,22.30
2018-06-02T08:15:07.201Z,22.00
2018-06-02T08:17:33.797Z,21.90
2018-06-02T08:20:00.408Z,22.00
2018-06-02T08:22:27.082Z,21.90
2018-06-02T08:24:53.647Z,22.00
2018-06-02T08:27:20.242Z,22.50
2018-06-02T08:29:47.205Z,23.70
2018-06-02T08:32:14.164Z,24.30
2018-06-02T08:34:40.764Z,24.30
2018-06-02T08:37:07.330Z,24.90
2018-06-02T08:39:33.942Z,25.00
2018-06-02T08:42:00.599Z,25.20
2018-06-02T08:44:27.277Z,24.40
2018-06-02T08:46:53.901Z,23.60
2018-06-02T08:49:27.466Z,22.20
2018-06-02T08:51:54.084Z,21.80
2018-06-02T08:54:20.765Z,21.80
2018-06-02T08:56:47.689Z,21.90
2018-06-02T08:59:14.366Z,21.90
2018-06-02T09:01:40.949Z,22.00
2018-06-02T09:04:07.603Z,22.50
2018-06-02T09:06:34.210Z,22.70
2018-06-02T09:09:08.192Z,23.90
2018-06-02T09:11:34.822Z,23.90
2018-06-02T09:14:01.413Z,24.30
2018-06-02T09:16:28.470Z,23.90
2018-06-02T09:18:55.489Z,23.40
2018-06-02T09:21:22.097Z,23.40
2018-06-02T09:23:49.055Z,22.90
2018-06-02T09:26:15.679Z,22.90
2018-06-02T09:28:42.657Z,23.40
2018-06-02T09:31:09.609Z,23.80
2018-06-02T09:33:36.588Z,23.90
2018-06-02T09:36:03.237Z,23.90
2018-06-02T09:38:29.881Z,23.50
2018-06-02T09:40:56.552Z,23.10
2018-06-02T09:43:23.111Z,23.10
2018-06-02T09:45:49.754Z,23.00
2018-06-02T09:48:16.436Z,22.90
2018-06-02T09:50:43.402Z,23.20
2018-06-02T09:53:09.993Z,23.20
2018-06-02T09:55:36.545Z,23.00
2018-06-02T09:58:03.174Z,23.10
2018-06-02T10:00:30.839Z,23.60
2018-06-02T10:02:57.855Z,24.40
2018-06-02T10:05:24.511Z,24.30
2018-06-02T10:07:51.080Z,24.80
2018-06-02T10:10:18.291Z,24.00
2018-06-02T10:12:45.239Z,24.00
2018-06-02T10:15:11.830Z,24.20
2018-06-02T10:17:38.659Z,24.20
2018-06-02T10:20:05.397Z,24.20
2018-06-02T10:22:32.194Z,23.80
2018-06-02T10:24:58.911Z,23.70
2018-06-02T10:27:25.671Z,23.30
2018-06-02T10:29:52.313Z,22.90
2018-06-02T10:32:18.942Z,22.70
2018-06-02T10:34:45.549Z,22.60
2018-06-02T10:37:12.189Z,22.50
2018-06-02T10:39:41.584Z,22.40
2018-06-02T10:42:08.276Z,22.50
2018-06-02T10:44:35.306Z,22.60
2018-06-02T10:47:01.885Z,22.70
2018-06-02T10:49:28.877Z,22.70
2018-06-02T10:51:55.497Z,22.70
2018-06-02T10:54:22.118Z,22.60
2018-06-02T10:56:48.689Z,22.80
2018-06-02T10:59:15.685Z,22.90
2018-06-02T11:01:42.316Z,22.90
2018-06-02T11:04:08.948Z,23.00
2018-06-02T11:06:35.921Z,23.10
2018-06-02T11:09:02.655Z,23.10
2018-06-02T11:11:29.294Z,23.30
2018-06-02T11:13:56.334Z,23.90
2018-06-02T11:16:22.921Z,23.90
2018-06-02T11:18:49.897Z,24.60
2018-06-02T11:21:16.494Z,24.60
2018-06-02T11:23:43.101Z,25.10
2018-06-02T11:26:09.697Z,25.50
2018-06-02T11:28:36.263Z,25.70
2018-06-02T11:31:03.230Z,25.90
2018-06-02T11:33:29.798Z,25.90
2018-06-02T11:35:56.529Z,25.60
2018-06-02T11:38:23.157Z,25.40
2018-06-02T11:40:50.100Z,25.70
2018-06-02T11:43:16.725Z,25.70
2018-06-02T11:45:43.353Z,25.60
2018-06-02T11:48:10.081Z,25.50
2018-06-02T11:50:36.717Z,25.80
2018-06-02T11:53:03.692Z,26.20
2018-06-02T11:55:30.313Z,26.20
2018-06-02T11:57:57.355Z,26.40
2018-06-02T12:00:24.002Z,26.40
2018-06-02T12:02:50.619Z,26.20
2018-06-02T12:05:17.170Z,26.00
2018-06-02T12:07:43.810Z,26.20
2018-06-02T12:10:10.381Z,26.50
2018-06-02T12:12:37.009Z,26.20
2018-06-02T12:15:03.673Z,26.00
2018-06-02T12:17:30.274Z,26.10
2018-06-02T12:19:57.370Z,26.10
2018-06-02T12:22:23.953Z,26.10
2018-06-02T12:24:50.581Z,26.20
2018-06-02T12:27:17.180Z,26.10
2018-06-02T12:29:44.162Z,25.90
2018-06-02T12:32:10.778Z,25.90
2018-06-02T12:34:37.717Z,26.00
2018-06-02T12:37:04.335Z,26.00
2018-06-02T12:39:30.964Z,26.00
2018-06-02T12:41:57.574Z,26.00
2018-06-02T12:44:25.079Z,26.60
2018-06-02T12:46:51.657Z,26.60
2018-06-02T12:49:18.265Z,26.70
2018-06-02T12:51:44.947Z,26.40
2018-06-02T12:54:11.517Z,26.40
2018-06-02T12:56:38.110Z,26.30
2018-06-02T12:59:04.671Z,26.20
2018-06-02T13:01:31.281Z,26.70
2018-06-02T13:03:57.937Z,27.00
2018-06-02T13:06:24.981Z,26.80
2018-06-02T13:08:51.585Z,26.80
2018-06-02T13:11:18.148Z,27.00
2018-06-02T13:13:44.731Z,27.20
2018-06-02T13:16:11.325Z,26.90
2018-06-02T13:18:37.895Z,26.50
2018-06-02T13:21:04.454Z,26.20
2018-06-02T13:23:31.089Z,26.20
2018-06-02T13:25:57.754Z,26.70
2018-06-02T13:28:24.926Z,26.30
2018-06-02T13:30:51.625Z,26.40
2018-06-02T13:33:18.228Z,26.10
2018-06-02T13:35:44.891Z,26.00
2018-06-02T13:38:11.881Z,26.20
2018-06-02T13:40:38.493Z,26.20
2018-06-02T13:43:05.108Z,26.60
2018-06-02T13:45:31.705Z,26.80
2018-06-02T13:47:58.782Z,26.90
2018-06-02T13:50:25.390Z,26.90
2018-06-02T13:52:52.458Z,27.20
2018-06-02T13:55:19.498Z,27.60
2018-06-02T13:57:46.117Z,27.60
2018-06-02T14:00:12.714Z,27.50
2018-06-02T14:02:39.664Z,27.30
2018-06-02T14:05:06.263Z,27.40
2018-06-02T14:07:32.853Z,27.60
2018-06-02T14:09:59.449Z,27.50
2018-06-02T14:12:26.109Z,26.90
2018-06-02T14:14:52.672Z,26.40
2018-06-02T14:17:19.293Z,26.50
2018-06-02T14:19:45.922Z,26.90
2018-06-02T14:22:12.849Z,26.40
2018-06-02T14:24:39.454Z,26.40
2018-06-02T14:27:06.011Z,26.50
2018-06-02T14:29:32.617Z,26.60
2018-06-02T14:31:59.617Z,26.80
2018-06-02T14:34:26.254Z,26.80
2018-06-02T14:36:52.857Z,26.70
2018-06-02T14:39:19.417Z,26.70
2018-06-02T14:41:46.416Z,26.30
2018-06-02T14:44:13.008Z,26.30
2018-06-02T14:46:39.950Z,26.40
2018-06-02T14:49:06.542Z,26.40
2018-06-02T14:51:33.464Z,26.40
2018-06-02T14:54:00.084Z,26.40
2018-06-02T14:56:26.750Z,26.60
2018-06-02T14:58:53.366Z,26.60
2018-06-02T15:01:19.957Z,26.10
2018-06-02T15:03:46.569Z,25.60
2018-06-02T15:06:13.195Z,25.60
2018-06-02T15:08:39.801Z,25.80
2018-06-02T15:11:06.451Z,26.10
2018-06-02T15:13:33.465Z,26.20
2018-06-02T15:16:00.073Z,26.20
2018-06-02T15:18:27.236Z,25.90
2018-06-02T15:20:54.229Z,25.60
2018-06-02T15:23:20.821Z,25.60
2018-06-02T15:25:47.429Z,25.50
2018-06-02T15:28:14.116Z,25.80
2018-06-02T15:30:40.745Z,25.80
2018-06-02T15:33:07.337Z,25.80
2018-06-02T15:35:34.764Z,25.60
2018-06-02T15:38:01.402Z,25.40
2018-06-02T15:40:28.027Z,25.30
2018-06-02T15:42:54.697Z,25.20
2018-06-02T15:45:21.304Z,24.90
2018-06-02T15:47:48.257Z,24.80
2018-06-02T15:50:15.282Z,25.00
2018-06-02T15:52:41.858Z,24.90
2018-06-02T15:55:08.469Z,25.00
2018-06-02T15:57:35.093Z,24.80
2018-06-02T16:00:01.684Z,24.70
2018-06-02T16:02:28.390Z,24.70
2018-06-02T16:04:55.014Z,24.70
2018-06-02T16:07:21.989Z,24.60
2018-06-02T16:09:48.581Z,24.70
2018-06-02T16:12:15.185Z,24.80
2018-06-02T16:14:41.796Z,25.10
2018-06-02T16:17:08.369Z,25.10
2018-06-02T16:19:35.345Z,25.00
2018-06-02T16:22:02.030Z,25.00
2018-06-02T16:24:28.968Z,24.90
2018-06-02T16:26:55.667Z,25.00
2018-06-02T16:29:22.639Z,24.70
2018-06-02T16:31:49.629Z,24.40
2018-06-02T16:34:16.265Z,24.40
2018-06-02T16:36:49.855Z,24.30
2018-06-02T16:39:16.817Z,24.50
2018-06-02T16:41:43.774Z,24.50
2018-06-02T16:44:10.746Z,24.50
2018-06-02T16:46:37.694Z,24.30
2018-06-02T16:49:04.667Z,24.30
2018-06-02T16:51:31.301Z,24.30
2018-06-02T16:53:58.289Z,24.40
2018-06-02T16:56:24.986Z,24.40
2018-06-02T16:58:51.953Z,24.60
2018-06-02T17:01:18.570Z,24.60
2018-06-02T17:03:45.186Z,24.60
2018-06-02T17:06:11.807Z,24.50
2018-06-02T17:08:38.425Z,24.50
2018-06-02T17:11:04.996Z,24.40
2018-06-02T17:13:31.598Z,24.60
2018-06-02T17:15:58.263Z,24.70
2018-06-02T17:18:24.854Z,24.80
2018-06-02T17:20:51.464Z,24.90
2018-06-02T17:23:18.028Z,24.90
2018-06-02T17:25:44.655Z,24.80
2018-06-02T17:28:11.257Z,24.80
2018-06-02T17:30:39.034Z,24.60
2018-06-02T17:33:05.639Z,24.60
2018-06-02T17:35:32.202Z,24.40
2018-06-02T17:37:58.822Z,24.30
2018-06-02T17:40:25.490Z,24.30
2018-06-02T17:42:52.065Z,24.30
2018-06-02T17:45:18.661Z,24.40
2018-06-02T17:47:45.276Z,24.40
2018-06-02T17:50:11.880Z,24.40
2018-06-02T17:52:38.496Z,24.30
2018-06-02T17:55:05.113Z,24.20
2018-06-02T17:57:32.103Z,24.00
2018-06-02T17:59:58.730Z,24.00
2018-06-02T18:02:25.372Z,24.00
2018-06-02T18:04:51.974Z,24.00
2018-06-02T18:07:18.549Z,24.00
2018-06-02T18:09:45.251Z,23.90
2018-06-02T18:12:11.834Z,23.90
2018-06-02T18:14:38.436Z,23.90
2018-06-02T18:17:05.057Z,23.90
2018-06-02T18:19:32.025Z,23.80
2018-06-02T18:22:05.726Z,23.80
2018-06-02T18:24:32.733Z,23.70
2018-06-02T18:26:59.354Z,23.70
2018-06-02T18:29:26.017Z,23.60
2018-06-02T18:31:52.605Z,23.60
2018-06-02T18:34:19.205Z,23.60
2018-06-02T18:36:45.805Z,23.50
2018-06-02T18:39:12.793Z,23.30
2018-06-02T18:41:39.406Z,23.30
2018-06-02T18:44:05.972Z,23.20
2018-06-02T18:46:32.965Z,23.00
2018-06-02T18:48:59.540Z,23.00
2018-06-02T18:51:26.218Z,23.00
2018-06-02T18:53:53.197Z,22.90
2018-06-02T18:56:20.129Z,22.80
2018-06-02T18:58:46.752Z,22.80
2018-06-02T19:01:13.316Z,22.70
2018-06-02T19:03:39.926Z,22.70
2018-06-02T19:06:06.528Z,22.60
2018-06-02T19:08:33.086Z,22.60
2018-06-02T19:11:00.053Z,22.60
2018-06-02T19:13:27.073Z,22.50
2018-06-02T19:15:54.072Z,22.50
2018-06-02T19:18:20.677Z,22.30
2018-06-02T19:20:47.241Z,22.30
2018-06-02T19:23:13.894Z,22.20
2018-06-02T19:25:40.824Z,22.00
2018-06-02T19:28:07.418Z,22.00
2018-06-02T19:30:34.383Z,21.90
2018-06-02T19:33:00.963Z,21.80
2018-06-02T19:35:27.681Z,21.80
2018-06-02T19:37:54.205Z,21.80
2018-06-02T19:40:21.170Z,21.70
2018-06-02T19:42:48.145Z,21.70
2018-06-02T19:45:14.721Z,21.70
2018-06-02T19:47:41.312Z,21.70
2018-06-02T19:50:07.870Z,21.50
2018-06-02T19:52:34.842Z,21.40
2018-06-02T19:55:01.438Z,21.40
2018-06-02T19:58:01.902Z,21.00
2018-06-02T20:00:30.173Z,20.70
2018-06-02T20:02:58.445Z,20.70
2018-06-02T20:05:26.706Z,20.70
2018-06-02T20:07:54.966Z,20.70
2018-06-02T20:10:23.526Z,20.50
2018-06-02T20:12:51.725Z,20.30
2018-06-02T20:15:20.318Z,20.20
2018-06-02T20:17:48.505Z,20.30
2018-06-02T20:20:16.686Z,20.30
2018-06-02T20:22:44.952Z,20.40
2018-06-02T20:25:13.155Z,20.40
2018-06-02T20:27:41.330Z,20.30
2018-06-02T20:30:09.533Z,20.30
2018-06-02T20:32:37.690Z,20.30
2018-06-02T20:35:05.910Z,20.40
2018-06-02T20:37:34.249Z,20.30
2018-06-02T20:40:02.426Z,20.30
2018-06-02T20:42:30.739Z,20.30
2018-06-02T20:44:58.898Z,20.30
2018-06-02T20:47:27.131Z,20.40
2018-06-02T20:49:55.361Z,20.40
2018-06-02T20:52:23.523Z,20.40
2018-06-02T20:54:51.704Z,20.40
2018-06-02T20:57:19.872Z,20.40
2018-06-02T20:59:48.090Z,20.30
2018-06-02T21:04:44.233Z,20.10
2018-06-02T21:07:12.426Z,20.00
2018-06-02T21:09:40.573Z,20.10
2018-06-02T21:12:08.757Z,20.10
2018-06-02T21:14:36.957Z,20.20
2018-06-02T21:17:05.102Z,20.10
2018-06-02T21:19:34.696Z,20.20
2018-06-02T21:22:02.897Z,20.20
2018-06-02T21:24:31.110Z,20.20
2018-06-02T21:26:59.320Z,20.10
2018-06-02T21:29:27.510Z,20.10
2018-06-02T21:31:55.750Z,19.90
2018-06-02T21:34:23.919Z,19.80
2018-06-02T21:36:52.113Z,19.60
2018-06-02T21:39:20.302Z,19.50
2018-06-02T21:41:48.610Z,19.60
2018-06-02T21:44:16.845Z,19.50
2018-06-02T21:46:45.073Z,19.30
2018-06-02T21:49:13.260Z,19.20
2018-06-02T21:51:41.475Z,19.10
2018-06-02T21:54:09.624Z,18.90
2018-06-02T21:56:37.814Z,18.90
2018-06-02T21:59:06.055Z,19.00
2018-06-02T22:01:34.321Z,18.80
2018-06-02T22:04:02.809Z,18.70
2018-06-02T22:06:31.133Z,18.50
2018-06-02T22:08:59.537Z,18.40
2018-06-02T22:11:27.805Z,18.30
2018-06-02T22:13:56.537Z,18.30
2018-06-02T22:16:25.533Z,18.20
2018-06-02T22:18:54.211Z,18.10
2018-06-02T22:21:22.925Z,18.10
2018-06-02T22:23:53.005Z,18.20
2018-06-02T22:26:21.752Z,18.10
2018-06-02T22:28:50.415Z,18.20
2018-06-02T22:31:19.166Z,18.20
2018-06-02T22:33:48.069Z,18.20
2018-06-02T22:36:16.760Z,18.10
2018-06-02T22:38:45.453Z,18.30
2018-06-02T22:41:14.103Z,18.40
2018-06-02T22:43:42.294Z,18.50
2018-06-02T22:46:10.473Z,18.30
2018-06-02T22:48:38.874Z,18.30
2018-06-02T22:51:07.073Z,18.20
2018-06-02T22:53:35.417Z,18.30
2018-06-02T22:56:04.187Z,18.30
2018-06-02T22:58:32.873Z,18.40
2018-06-02T23:01:01.533Z,18.30
2018-06-02T23:03:29.930Z,18.30
2018-06-02T23:05:58.509Z,18.30
2018-06-02T23:08:27.038Z,18.20
2018-06-02T23:10:55.264Z,18.30
2018-06-02T23:13:23.433Z,18.20
2018-06-02T23:15:51.665Z,18.20
2018-06-02T23:18:19.817Z,18.10
2018-06-02T23:20:48.006Z,18.20
2018-06-02T23:23:16.213Z,18.30
2018-06-02T23:25:44.931Z,18.20
2018-06-02T23:28:13.558Z,18.30
2018-06-02T23:30:42.567Z,18.30
2018-06-02T23:33:11.270Z,18.20
2018-06-02T23:35:39.873Z,18.20
2018-06-02T23:38:08.575Z,18.30
2018-06-02T23:40:37.203Z,18.40
2018-06-02T23:43:05.900Z,18.30
2018-06-02T23:45:34.555Z,18.00
2018-06-02T23:48:03.188Z,17.90
2018-06-02T23:50:31.397Z,17.90
2018-06-02T23:52:59.616Z,18.00
2018-06-02T23:55:28.039Z,18.00
2018-06-02T23:57:56.265Z,17.90
